createdAt,value
2023-04-30T00:00:26.052Z,9.443761
2023-04-30T00:01:26.007Z,9.443764
2023-04-30T00:02:26.541Z,9.443830
2023-04-30T00:03:26.082Z,9.443856
2023-04-30T00:04:27.264Z,9.443918
2023-04-30T00:05:26.041Z,9.444060
2023-04-30T00:06:28.266Z,9.443955
2023-04-30T00:07:25.981Z,9.443942
2023-04-30T00:08:26.002Z,9.443945
2023-04-30T00:09:25.995Z,9.443939
2023-04-30T00:10:26.203Z,9.443914
2023-04-30T00:11:26.154Z,9.443835
2023-04-30T00:12:25.961Z,9.443877
2023-04-30T00:13:26.941Z,9.443830
2023-04-30T00:14:26.000Z,9.443927
2023-04-30T00:15:25.961Z,9.443924
2023-04-30T00:16:25.990Z,9.443830
2023-04-30T00:17:25.961Z,9.443791
2023-04-30T00:18:25.955Z,9.443769
2023-04-30T00:19:25.912Z,9.443814
2023-04-30T00:20:25.910Z,9.443888
2023-04-30T00:21:25.908Z,9.443872
2023-04-30T00:22:25.886Z,9.443855
2023-04-30T00:23:25.874Z,9.443748
2023-04-30T00:24:25.881Z,9.443732
2023-04-30T00:25:25.881Z,9.443771
2023-04-30T00:26:25.865Z,9.443814
2023-04-30T00:27:25.858Z,9.443719
2023-04-30T00:28:25.837Z,9.443671
2023-04-30T00:29:26.519Z,9.443679
2023-04-30T00:30:25.843Z,9.443738
2023-04-30T00:31:25.871Z,9.443841
2023-04-30T00:32:25.904Z,9.443819
2023-04-30T00:33:25.827Z,9.443666
2023-04-30T00:34:25.860Z,9.443519
2023-04-30T00:35:25.858Z,9.443686
2023-04-30T00:36:26.086Z,9.443753
2023-04-30T00:37:25.831Z,9.443662
2023-04-30T00:38:25.795Z,9.443618
2023-04-30T00:39:25.808Z,9.443645
2023-04-30T00:40:25.781Z,9.443624
2023-04-30T00:41:25.778Z,9.443694
2023-04-30T00:42:25.855Z,9.443638
2023-04-30T00:43:25.807Z,9.443711
2023-04-30T00:44:25.763Z,9.443790
2023-04-30T00:45:25.765Z,9.443647
2023-04-30T00:46:26.635Z,9.443688
2023-04-30T00:47:25.755Z,9.443715
2023-04-30T00:48:25.774Z,9.443789
2023-04-30T00:49:25.732Z,9.443810
2023-04-30T00:50:25.764Z,9.443796
2023-04-30T00:51:25.835Z,9.443751
2023-04-30T00:52:25.839Z,9.443786
2023-04-30T00:53:25.728Z,9.443704
2023-04-30T00:54:25.742Z,9.443768
2023-04-30T00:55:25.696Z,9.443793
2023-04-30T00:56:25.690Z,9.443840
2023-04-30T00:57:25.691Z,9.443864
2023-04-30T00:58:25.678Z,9.443769
2023-04-30T00:59:25.703Z,9.443771
2023-04-30T01:00:25.648Z,9.443876
2023-04-30T01:01:25.660Z,9.443860
2023-04-30T01:02:25.668Z,9.443849
2023-04-30T01:03:25.861Z,9.443907
2023-04-30T01:04:25.623Z,9.443902
2023-04-30T01:05:25.622Z,9.443924
2023-04-30T01:06:25.702Z,9.443824
2023-04-30T01:07:25.609Z,9.443777
2023-04-30T01:08:33.223Z,9.443722
2023-04-30T01:09:25.604Z,9.443809
2023-04-30T01:10:25.592Z,9.443802
2023-04-30T01:11:25.596Z,9.443882
2023-04-30T01:12:25.598Z,9.443788
2023-04-30T01:13:25.600Z,9.443829
2023-04-30T01:14:25.570Z,9.443859
2023-04-30T01:15:25.543Z,9.443812
2023-04-30T01:16:25.653Z,9.443863
2023-04-30T01:17:25.547Z,9.443967
2023-04-30T01:18:25.669Z,9.443854
2023-04-30T01:19:25.534Z,9.443889
2023-04-30T01:20:25.536Z,9.443723
2023-04-30T01:21:25.538Z,9.443744
2023-04-30T01:22:25.504Z,9.443760
2023-04-30T01:23:25.518Z,9.443752
2023-04-30T01:24:25.485Z,9.443770
2023-04-30T01:25:25.516Z,9.443745
2023-04-30T01:26:25.507Z,9.443750
2023-04-30T01:27:25.467Z,9.443846
2023-04-30T01:28:25.463Z,9.443825
2023-04-30T01:29:25.453Z,9.443780
2023-04-30T01:30:25.451Z,9.443739
2023-04-30T01:31:25.503Z,9.443785
2023-04-30T01:32:25.507Z,9.443875
2023-04-30T01:33:25.428Z,9.443768
2023-04-30T01:34:25.423Z,9.443734
2023-04-30T01:35:25.431Z,9.443678
2023-04-30T01:36:25.428Z,9.443713
2023-04-30T01:37:25.410Z,9.443751
2023-04-30T01:38:25.417Z,9.443721
2023-04-30T01:39:25.398Z,9.443693
2023-04-30T01:40:25.434Z,9.443671
2023-04-30T01:41:25.397Z,9.443679
2023-04-30T01:42:25.382Z,9.443703
2023-04-30T01:43:25.353Z,9.443681
2023-04-30T01:44:26.408Z,9.443706
2023-04-30T01:45:25.363Z,9.443690
2023-04-30T01:46:25.424Z,9.443664
2023-04-30T01:47:25.414Z,9.443688
2023-04-30T01:48:25.357Z,9.443696
2023-04-30T01:49:25.327Z,9.443696
2023-04-30T01:50:25.351Z,9.443722
2023-04-30T01:51:25.363Z,9.443760
2023-04-30T01:52:25.356Z,9.443784
2023-04-30T01:53:25.342Z,9.443819
2023-04-30T01:54:25.302Z,9.443831
2023-04-30T01:55:25.308Z,9.443768
2023-04-30T01:56:25.271Z,9.443796
2023-04-30T01:57:25.319Z,9.443757
2023-04-30T01:58:25.263Z,9.443841
2023-04-30T01:59:25.284Z,9.443862
2023-04-30T02:00:25.262Z,9.443784
2023-04-30T02:01:25.311Z,9.443776
2023-04-30T02:02:25.337Z,9.443752
2023-04-30T02:03:25.365Z,9.443748
2023-04-30T02:04:25.291Z,9.443861
2023-04-30T02:05:25.244Z,9.443753
2023-04-30T02:06:25.262Z,9.443763
2023-04-30T02:07:25.247Z,9.443742
2023-04-30T02:08:25.223Z,9.443749
2023-04-30T02:09:25.243Z,9.443691
2023-04-30T02:10:25.217Z,9.443765
2023-04-30T02:11:25.202Z,9.443688
2023-04-30T02:12:25.200Z,9.443619
2023-04-30T02:13:25.172Z,9.443627
2023-04-30T02:14:25.199Z,9.443690
2023-04-30T02:15:25.162Z,9.443627
2023-04-30T02:16:25.200Z,9.443642
2023-04-30T02:17:25.167Z,9.443653
2023-04-30T02:18:25.137Z,9.443693
2023-04-30T02:19:25.141Z,9.443756
2023-04-30T02:20:25.140Z,9.443700
2023-04-30T02:21:25.115Z,9.443715
2023-04-30T02:22:25.121Z,9.443677
2023-04-30T02:23:25.105Z,9.443740
2023-04-30T02:24:25.106Z,9.443598
2023-04-30T02:25:25.118Z,9.443589
2023-04-30T02:26:25.087Z,9.443725
2023-04-30T02:27:25.095Z,9.443752
2023-04-30T02:28:25.082Z,9.443601
2023-04-30T02:29:25.072Z,9.443576
2023-04-30T02:30:25.312Z,9.443618
2023-04-30T02:31:25.080Z,9.443594
2023-04-30T02:32:25.066Z,9.443547
2023-04-30T02:33:25.080Z,9.443521
2023-04-30T02:34:25.023Z,9.443548
2023-04-30T02:35:25.046Z,9.443563
2023-04-30T02:36:25.031Z,9.443598
2023-04-30T02:37:25.024Z,9.443776
2023-04-30T02:38:25.008Z,9.443836
2023-04-30T02:39:25.021Z,9.443748
2023-04-30T02:40:24.993Z,9.443741
2023-04-30T02:41:24.978Z,9.443695
2023-04-30T02:42:24.985Z,9.443726
2023-04-30T02:43:24.980Z,9.443742
2023-04-30T02:44:24.974Z,9.443813
2023-04-30T02:45:25.048Z,9.443748
2023-04-30T02:46:25.065Z,9.443699
2023-04-30T02:47:24.992Z,9.443754
2023-04-30T02:48:24.983Z,9.443742
2023-04-30T02:49:24.936Z,9.443764
2023-04-30T02:50:24.938Z,9.443787
2023-04-30T02:51:24.928Z,9.443770
2023-04-30T02:52:24.952Z,9.443774
2023-04-30T02:53:24.905Z,9.443769
2023-04-30T02:54:24.936Z,9.443716
2023-04-30T02:55:24.897Z,9.443766
2023-04-30T02:56:24.908Z,9.443685
2023-04-30T02:57:24.924Z,9.443765
2023-04-30T02:58:24.875Z,9.443817
2023-04-30T02:59:24.896Z,9.443701
2023-04-30T03:00:24.864Z,9.443761
2023-04-30T03:01:25.998Z,9.443738
2023-04-30T03:02:24.909Z,9.443801
2023-04-30T03:03:24.882Z,9.443732
2023-04-30T03:04:24.854Z,9.443634
2023-04-30T03:05:24.827Z,9.443703
2023-04-30T03:06:24.879Z,9.443754
2023-04-30T03:07:24.861Z,9.443740
2023-04-30T03:08:24.841Z,9.443669
2023-04-30T03:09:24.835Z,9.443673
2023-04-30T03:10:24.808Z,9.443675
2023-04-30T03:11:24.816Z,9.443722
2023-04-30T03:12:24.795Z,9.443739
2023-04-30T03:13:24.784Z,9.443719
2023-04-30T03:14:24.804Z,9.443670
2023-04-30T03:15:24.801Z,9.443695
2023-04-30T03:16:24.856Z,9.443788
2023-04-30T03:17:24.854Z,9.443757
2023-04-30T03:18:24.748Z,9.443663
2023-04-30T03:19:24.804Z,9.443739
2023-04-30T03:20:24.754Z,9.443791
2023-04-30T03:21:24.743Z,9.443628
2023-04-30T03:22:24.743Z,9.443619
2023-04-30T03:23:24.735Z,9.443622
2023-04-30T03:24:24.772Z,9.443634
2023-04-30T03:25:24.729Z,9.443658
2023-04-30T03:26:24.764Z,9.443727
2023-04-30T03:27:24.705Z,9.443784
2023-04-30T03:28:24.687Z,9.443768
2023-04-30T03:29:24.698Z,9.443785
2023-04-30T03:30:24.698Z,9.443766
2023-04-30T03:31:24.754Z,9.443778
2023-04-30T03:32:24.701Z,9.443766
2023-04-30T03:33:24.716Z,9.443687
2023-04-30T03:34:24.653Z,9.443712
2023-04-30T03:35:24.648Z,9.443700
2023-04-30T03:36:24.653Z,9.443800
2023-04-30T03:37:24.656Z,9.443757
2023-04-30T03:38:24.660Z,9.443752
2023-04-30T03:39:24.639Z,9.443714
2023-04-30T03:40:24.622Z,9.443716
2023-04-30T03:41:24.611Z,9.443756
2023-04-30T03:42:24.627Z,9.443737
2023-04-30T03:43:24.586Z,9.443753
2023-04-30T03:44:24.597Z,9.443789
2023-04-30T03:45:24.623Z,9.443784
2023-04-30T03:46:24.578Z,9.443702
2023-04-30T03:47:25.604Z,9.443678
2023-04-30T03:48:24.592Z,9.443661
2023-04-30T03:49:24.559Z,9.443686
2023-04-30T03:50:24.571Z,9.443698
2023-04-30T03:51:24.571Z,9.443728
2023-04-30T03:52:24.554Z,9.443702
2023-04-30T03:53:24.539Z,9.443707
2023-04-30T03:54:24.529Z,9.443692
2023-04-30T03:55:24.512Z,9.443725
2023-04-30T03:56:24.523Z,9.443788
2023-04-30T03:57:24.518Z,9.443693
2023-04-30T03:58:24.533Z,9.443707
2023-04-30T03:59:24.613Z,9.443571
2023-04-30T04:00:24.482Z,9.443597
2023-04-30T04:01:24.483Z,9.443540
2023-04-30T04:02:25.540Z,9.443521
2023-04-30T04:03:24.479Z,9.443657
2023-04-30T04:04:24.577Z,9.443638
2023-04-30T04:05:24.477Z,9.443763
2023-04-30T04:06:24.488Z,9.443748
2023-04-30T04:07:24.459Z,9.443714
2023-04-30T04:08:24.457Z,9.443654
2023-04-30T04:09:24.459Z,9.443760
2023-04-30T04:10:24.466Z,9.443614
2023-04-30T04:11:24.449Z,9.443640
2023-04-30T04:12:24.446Z,9.443725
2023-04-30T04:13:24.449Z,9.443705
2023-04-30T04:14:24.415Z,9.443712
2023-04-30T04:15:24.415Z,9.443757
2023-04-30T04:16:24.457Z,9.443652
2023-04-30T04:17:24.450Z,9.443771
2023-04-30T04:18:24.410Z,9.443761
2023-04-30T04:19:24.373Z,9.443634
2023-04-30T04:20:24.355Z,9.443545
2023-04-30T04:21:25.409Z,9.443663
2023-04-30T04:22:24.383Z,9.443596
2023-04-30T04:23:24.358Z,9.443656
2023-04-30T04:24:24.366Z,9.443721
2023-04-30T04:25:24.329Z,9.443799
2023-04-30T04:26:24.347Z,9.443872
2023-04-30T04:27:24.323Z,9.443866
2023-04-30T04:28:24.356Z,9.443812
2023-04-30T04:29:24.353Z,9.443776
2023-04-30T04:30:24.321Z,9.443687
2023-04-30T04:31:24.330Z,9.443714
2023-04-30T04:32:24.329Z,9.443684
2023-04-30T04:33:24.316Z,9.443674
2023-04-30T04:34:24.311Z,9.443680
2023-04-30T04:35:24.293Z,9.443677
2023-04-30T04:36:24.284Z,9.443692
2023-04-30T04:37:24.252Z,9.443733
2023-04-30T04:38:24.250Z,9.443739
2023-04-30T04:39:24.243Z,9.443708
2023-04-30T04:40:24.265Z,9.443719
2023-04-30T04:41:24.246Z,9.443753
2023-04-30T04:42:24.230Z,9.443793
2023-04-30T04:43:24.249Z,9.443781
2023-04-30T04:44:24.204Z,9.443766
2023-04-30T04:45:24.264Z,9.443730
2023-04-30T04:46:24.251Z,9.443720
2023-04-30T04:47:24.190Z,9.443706
2023-04-30T04:48:24.200Z,9.443718
2023-04-30T04:49:24.175Z,9.443726
2023-04-30T04:50:24.253Z,9.443700
2023-04-30T04:51:24.185Z,9.443691
2023-04-30T04:52:24.158Z,9.443689
2023-04-30T04:53:24.151Z,9.443730
2023-04-30T04:54:24.133Z,9.443701
2023-04-30T04:55:24.140Z,9.443698
2023-04-30T04:56:24.135Z,9.443769
2023-04-30T04:57:24.144Z,9.443773
2023-04-30T04:58:24.137Z,9.443755
2023-04-30T04:59:24.146Z,9.443786
2023-04-30T05:00:24.144Z,9.443776
2023-04-30T05:01:24.156Z,9.443751
2023-04-30T05:02:24.145Z,9.443704
2023-04-30T05:03:25.166Z,9.443670
2023-04-30T05:04:24.100Z,9.443718
2023-04-30T05:05:24.096Z,9.443628
2023-04-30T05:06:24.101Z,9.443664
2023-04-30T05:07:24.054Z,9.443622
2023-04-30T05:08:24.351Z,9.443741
2023-04-30T05:09:24.059Z,9.443685
2023-04-30T05:10:24.070Z,9.443663
2023-04-30T05:11:24.032Z,9.443573
2023-04-30T05:12:24.059Z,9.443565
2023-04-30T05:13:24.366Z,9.443677
2023-04-30T05:14:24.049Z,9.443644
2023-04-30T05:15:24.034Z,9.443621
2023-04-30T05:16:24.058Z,9.443633
2023-04-30T05:17:24.084Z,9.443640
2023-04-30T05:18:24.011Z,9.443744
2023-04-30T05:19:24.007Z,9.443652
2023-04-30T05:20:23.994Z,9.443603
2023-04-30T05:21:23.985Z,9.443619
2023-04-30T05:22:24.002Z,9.443655
2023-04-30T05:23:24.027Z,9.443650
2023-04-30T05:24:23.962Z,9.443698
2023-04-30T05:25:23.959Z,9.443591
2023-04-30T05:26:23.953Z,9.443695
2023-04-30T05:27:23.948Z,9.443701
2023-04-30T05:28:23.939Z,9.443596
2023-04-30T05:29:23.937Z,9.443596
2023-04-30T05:30:23.940Z,9.443661
2023-04-30T05:31:23.921Z,9.443649
2023-04-30T05:32:23.998Z,9.443700
2023-04-30T05:33:23.960Z,9.443689
2023-04-30T05:34:23.891Z,9.443704
2023-04-30T05:35:23.903Z,9.443695
2023-04-30T05:36:23.909Z,9.443788
2023-04-30T05:37:23.902Z,9.443750
2023-04-30T05:38:23.893Z,9.443765
2023-04-30T05:39:23.885Z,9.443695
2023-04-30T05:40:23.854Z,9.443664
2023-04-30T05:41:23.847Z,9.443645
2023-04-30T05:42:23.841Z,9.443688
2023-04-30T05:43:23.849Z,9.443701
2023-04-30T05:44:23.856Z,9.443702
2023-04-30T05:45:23.863Z,9.443655
2023-04-30T05:46:23.917Z,9.443716
2023-04-30T05:47:23.818Z,9.443739
2023-04-30T05:48:23.819Z,9.443693
2023-04-30T05:49:23.849Z,9.443750
2023-04-30T05:50:23.798Z,9.443709
2023-04-30T05:51:23.848Z,9.443685
2023-04-30T05:52:23.786Z,9.443695
2023-04-30T05:53:23.770Z,9.443684
2023-04-30T05:54:23.796Z,9.443679
2023-04-30T05:55:23.769Z,9.443677
2023-04-30T05:56:23.769Z,9.443700
2023-04-30T05:57:24.751Z,9.443703
2023-04-30T05:58:23.769Z,9.443717
2023-04-30T05:59:23.737Z,9.443800
2023-04-30T06:00:23.763Z,9.443675
2023-04-30T06:01:23.751Z,9.443686
2023-04-30T06:02:23.852Z,9.443702
2023-04-30T06:03:23.765Z,9.443681
2023-04-30T06:04:23.744Z,9.443690
2023-04-30T06:05:23.755Z,9.443638
2023-04-30T06:06:23.734Z,9.443616
2023-04-30T06:07:23.684Z,9.443647
2023-04-30T06:08:23.681Z,9.443675
2023-04-30T06:09:23.687Z,9.443678
2023-04-30T06:10:23.686Z,9.443688
2023-04-30T06:11:23.705Z,9.443626
2023-04-30T06:12:23.674Z,9.443632
2023-04-30T06:13:23.652Z,9.443627
2023-04-30T06:14:23.655Z,9.443631
2023-04-30T06:15:23.653Z,9.443675
2023-04-30T06:16:23.705Z,9.443680
2023-04-30T06:17:23.721Z,9.443686
2023-04-30T06:18:23.723Z,9.443643
2023-04-30T06:19:57.331Z,9.443638
2023-04-30T06:20:23.633Z,9.443659
2023-04-30T06:21:56.037Z,9.443679
2023-04-30T06:22:56.033Z,9.443679
2023-04-30T06:23:56.033Z,9.443747
2023-04-30T06:24:57.021Z,9.443657
2023-04-30T06:25:56.014Z,9.443664
2023-04-30T06:26:23.601Z,9.443666
2023-04-30T06:27:56.051Z,9.443707
2023-04-30T06:28:23.595Z,9.443692
2023-04-30T06:29:23.602Z,9.443705
2023-04-30T06:30:23.549Z,9.443682
2023-04-30T06:31:56.080Z,9.443705
2023-04-30T06:32:23.588Z,9.443633
2023-04-30T06:33:55.957Z,9.443653
2023-04-30T06:34:23.652Z,9.443759
2023-04-30T06:35:57.010Z,9.443777
2023-04-30T06:36:23.526Z,9.443658
2023-04-30T06:37:23.535Z,9.443643
2023-04-30T06:38:23.500Z,9.443595
2023-04-30T06:39:23.511Z,9.443707
2023-04-30T06:40:23.522Z,9.443588
2023-04-30T06:41:23.501Z,9.443630
2023-04-30T06:42:23.488Z,9.443711
2023-04-30T06:43:23.452Z,9.443683
2023-04-30T06:44:23.480Z,9.443647
2023-04-30T06:45:23.459Z,9.443613
2023-04-30T06:46:23.487Z,9.443640
2023-04-30T06:47:23.460Z,9.443724
2023-04-30T06:48:23.438Z,9.443699
2023-04-30T06:49:23.500Z,9.443769
2023-04-30T06:50:23.447Z,9.443799
2023-04-30T06:51:23.430Z,9.443764
2023-04-30T06:52:23.408Z,9.443580
2023-04-30T06:53:23.419Z,9.443632
2023-04-30T06:54:23.404Z,9.443605
2023-04-30T06:55:23.412Z,9.443495
2023-04-30T06:56:23.402Z,9.443260
2023-04-30T06:57:23.395Z,9.443634
2023-04-30T06:58:23.374Z,9.443719
2023-04-30T06:59:23.362Z,9.443667
2023-04-30T07:00:23.374Z,9.443636
2023-04-30T07:01:23.412Z,9.443565
2023-04-30T07:02:23.492Z,9.443610
2023-04-30T07:03:23.410Z,9.443761
2023-04-30T07:04:23.339Z,9.443727
2023-04-30T07:05:23.338Z,9.443762
2023-04-30T07:06:23.454Z,9.443775
2023-04-30T07:07:23.358Z,9.443674
2023-04-30T07:08:23.344Z,9.443814
2023-04-30T07:09:23.338Z,9.443790
2023-04-30T07:10:23.420Z,9.443742
2023-04-30T07:11:23.307Z,9.443697
2023-04-30T07:12:23.297Z,9.443744
2023-04-30T07:13:24.250Z,9.443827
2023-04-30T07:14:23.291Z,9.443804
2023-04-30T07:15:23.337Z,9.443835
2023-04-30T07:16:23.313Z,9.443795
2023-04-30T07:17:24.615Z,9.443717
2023-04-30T07:18:23.256Z,9.443898
2023-04-30T07:19:23.247Z,9.443866
2023-04-30T07:20:23.262Z,9.444022
2023-04-30T07:21:23.274Z,9.443809
2023-04-30T07:22:23.245Z,9.443987
2023-04-30T07:23:23.230Z,9.443955
2023-04-30T07:24:23.248Z,9.443813
2023-04-30T07:25:23.217Z,9.443857
2023-04-30T07:26:23.229Z,9.443812
2023-04-30T07:27:23.219Z,9.443915
2023-04-30T07:28:23.221Z,9.443884
2023-04-30T07:29:23.215Z,9.443682
2023-04-30T07:30:25.061Z,9.443713
2023-04-30T07:31:23.246Z,9.443660
2023-04-30T07:32:23.165Z,9.443678
2023-04-30T07:33:23.155Z,9.443712
2023-04-30T07:34:23.172Z,9.443758
2023-04-30T07:35:23.154Z,9.443768
2023-04-30T07:36:23.158Z,9.443734
2023-04-30T07:37:23.294Z,9.443722
2023-04-30T07:38:23.159Z,9.443691
2023-04-30T07:39:23.144Z,9.443725
2023-04-30T07:40:34.835Z,9.443676
2023-04-30T07:41:25.123Z,9.443650
2023-04-30T07:42:23.299Z,9.443596
2023-04-30T07:43:23.129Z,9.443605
2023-04-30T07:44:23.109Z,9.443690
2023-04-30T07:45:23.106Z,9.443785
2023-04-30T07:46:23.389Z,9.443748
2023-04-30T07:47:23.154Z,9.443770
2023-04-30T07:48:23.154Z,9.443747
2023-04-30T07:49:23.086Z,9.443654
2023-04-30T07:50:23.152Z,9.443753
2023-04-30T07:51:23.048Z,9.443768
2023-04-30T07:52:23.077Z,9.443725
2023-04-30T07:53:23.049Z,9.443681
2023-04-30T07:54:23.090Z,9.443624
2023-04-30T07:55:24.004Z,9.443693
2023-04-30T07:56:23.024Z,9.443696
2023-04-30T07:57:23.037Z,9.443633
2023-04-30T07:58:23.123Z,9.443557
2023-04-30T07:59:23.003Z,9.443607
2023-04-30T08:00:23.193Z,9.443716
2023-04-30T08:01:23.117Z,9.443604
2023-04-30T08:02:22.995Z,9.443581
2023-04-30T08:03:24.185Z,9.443762
2023-04-30T08:04:23.050Z,9.443794
2023-04-30T08:05:22.952Z,9.443736
2023-04-30T08:06:23.037Z,9.443681
2023-04-30T08:07:23.068Z,9.443654
2023-04-30T08:08:22.971Z,9.443761
2023-04-30T08:09:23.253Z,9.443789
2023-04-30T08:10:23.914Z,9.443730
2023-04-30T08:11:22.933Z,9.443656
2023-04-30T08:12:22.902Z,9.443760
2023-04-30T08:13:22.904Z,9.443767
2023-04-30T08:14:22.944Z,9.443696
2023-04-30T08:15:22.922Z,9.443704
2023-04-30T08:16:22.941Z,9.443645
2023-04-30T08:17:22.890Z,9.443586
2023-04-30T08:18:22.862Z,9.443623
2023-04-30T08:19:22.916Z,9.443652
2023-04-30T08:20:23.007Z,9.443689
2023-04-30T08:21:22.864Z,9.443778
2023-04-30T08:22:22.873Z,9.443727
2023-04-30T08:23:22.864Z,9.443699
2023-04-30T08:24:22.857Z,9.443699
2023-04-30T08:25:22.840Z,9.443667
2023-04-30T08:26:22.809Z,9.443642
2023-04-30T08:27:22.837Z,9.443649
2023-04-30T08:28:22.844Z,9.443697
2023-04-30T08:29:22.795Z,9.443694
2023-04-30T08:30:22.810Z,9.443694
2023-04-30T08:31:22.832Z,9.443735
2023-04-30T08:32:24.022Z,9.443714
2023-04-30T08:33:22.927Z,9.443711
2023-04-30T08:34:22.834Z,9.443698
2023-04-30T08:35:22.774Z,9.443733
2023-04-30T08:36:22.812Z,9.443692
2023-04-30T08:37:22.796Z,9.443668
2023-04-30T08:38:22.782Z,9.443666
2023-04-30T08:39:22.771Z,9.443719
2023-04-30T08:40:29.118Z,9.443794
2023-04-30T08:41:23.747Z,9.443762
2023-04-30T08:42:23.735Z,9.443781
2023-04-30T08:43:22.920Z,9.443769
2023-04-30T08:44:22.768Z,9.443737
2023-04-30T08:45:22.726Z,9.443792
2023-04-30T08:46:22.760Z,9.443749
2023-04-30T08:47:22.748Z,9.443826
2023-04-30T08:48:22.693Z,9.443857
2023-04-30T08:49:24.024Z,9.443896
2023-04-30T08:50:22.670Z,9.443866
2023-04-30T08:51:22.685Z,9.443867
2023-04-30T08:52:22.675Z,9.443864
2023-04-30T08:53:23.262Z,9.443830
2023-04-30T08:54:23.261Z,9.443807
2023-04-30T08:55:22.675Z,9.443750
2023-04-30T08:56:24.701Z,9.443736
2023-04-30T08:57:22.684Z,9.443850
2023-04-30T08:58:22.629Z,9.443841
2023-04-30T08:59:22.620Z,9.443751
2023-04-30T09:00:22.626Z,9.443710
2023-04-30T09:01:22.630Z,9.443745
2023-04-30T09:02:22.670Z,9.443670
2023-04-30T09:03:22.675Z,9.443719
2023-04-30T09:04:22.632Z,9.443720
2023-04-30T09:05:22.556Z,9.443719
2023-04-30T09:06:22.642Z,9.443713
2023-04-30T09:07:22.543Z,9.443694
2023-04-30T09:08:22.529Z,9.443658
2023-04-30T09:09:23.404Z,9.443716
2023-04-30T09:10:22.527Z,9.443771
2023-04-30T09:11:22.631Z,9.443679
2023-04-30T09:12:22.569Z,9.443582
2023-04-30T09:13:22.820Z,9.443843
2023-04-30T09:14:22.583Z,9.443621
2023-04-30T09:15:22.575Z,9.443727
2023-04-30T09:16:22.623Z,9.443870
2023-04-30T09:17:22.792Z,9.443830
2023-04-30T09:18:22.536Z,9.443743
2023-04-30T09:19:22.512Z,9.443587
2023-04-30T09:20:22.515Z,9.443560
2023-04-30T09:21:22.455Z,9.443789
2023-04-30T09:22:22.465Z,9.443817
2023-04-30T09:23:22.473Z,9.443838
2023-04-30T09:24:22.414Z,9.443789
2023-04-30T09:25:22.464Z,9.443710
2023-04-30T09:26:22.461Z,9.443689
2023-04-30T09:27:22.759Z,9.443768
2023-04-30T09:28:22.455Z,9.443756
2023-04-30T09:29:22.470Z,9.443711
2023-04-30T09:30:22.417Z,9.443727
2023-04-30T09:31:22.451Z,9.443704
2023-04-30T09:32:22.423Z,9.443760
2023-04-30T09:33:22.638Z,9.443705
2023-04-30T09:34:22.382Z,9.443714
2023-04-30T09:35:22.385Z,9.443767
2023-04-30T09:36:22.503Z,9.443769
2023-04-30T09:37:22.332Z,9.443736
2023-04-30T09:38:22.320Z,9.443771
2023-04-30T09:39:22.387Z,9.443803
2023-04-30T09:40:22.419Z,9.443717
2023-04-30T09:41:22.362Z,9.443725
2023-04-30T09:42:22.390Z,9.443757
2023-04-30T09:43:22.297Z,9.443720
2023-04-30T09:44:22.284Z,9.443726
2023-04-30T09:45:22.295Z,9.443739
2023-04-30T09:46:22.347Z,9.443735
2023-04-30T09:47:22.413Z,9.443727
2023-04-30T09:48:22.453Z,9.443727
2023-04-30T09:49:22.297Z,9.443787
2023-04-30T09:50:22.290Z,9.443809
2023-04-30T09:51:22.300Z,9.443788
2023-04-30T09:52:22.314Z,9.443774
2023-04-30T09:53:22.253Z,9.443813
2023-04-30T09:54:22.268Z,9.443886
2023-04-30T09:55:22.226Z,9.443837
2023-04-30T09:56:22.266Z,9.443772
2023-04-30T09:57:22.361Z,9.443743
2023-04-30T09:58:22.272Z,9.443768
2023-04-30T09:59:22.258Z,9.443689
2023-04-30T10:00:22.251Z,9.443725
2023-04-30T10:01:22.422Z,9.443727
2023-04-30T10:02:24.210Z,9.443749
2023-04-30T10:03:22.273Z,9.443744
2023-04-30T10:04:22.498Z,9.443789
2023-04-30T10:05:22.201Z,9.443755
2023-04-30T10:06:22.294Z,9.443715
2023-04-30T10:07:22.854Z,9.443646
2023-04-30T10:08:22.164Z,9.443692
2023-04-30T10:09:22.148Z,9.443595
2023-04-30T10:10:22.120Z,9.443613
2023-04-30T10:11:22.128Z,9.443679
2023-04-30T10:12:22.133Z,9.443710
2023-04-30T10:13:22.118Z,9.443690
2023-04-30T10:14:22.120Z,9.443703
2023-04-30T10:15:22.127Z,9.443727
2023-04-30T10:16:22.152Z,9.443727
2023-04-30T10:17:22.100Z,9.443678
2023-04-30T10:18:22.121Z,9.443641
2023-04-30T10:19:22.224Z,9.443629
2023-04-30T10:20:22.128Z,9.443650
2023-04-30T10:21:22.053Z,9.443685
2023-04-30T10:22:22.107Z,9.443711
2023-04-30T10:23:22.085Z,9.443709
2023-04-30T10:24:22.152Z,9.443679
2023-04-30T10:25:22.800Z,9.443677
2023-04-30T10:26:22.224Z,9.443675
2023-04-30T10:27:22.752Z,9.443657
2023-04-30T10:28:22.073Z,9.443663
2023-04-30T10:29:22.038Z,9.443704
2023-04-30T10:30:22.043Z,9.443703
2023-04-30T10:31:22.284Z,9.443680
2023-04-30T10:32:22.033Z,9.443692
2023-04-30T10:33:22.996Z,9.443699
2023-04-30T10:34:22.790Z,9.443636
2023-04-30T10:35:21.984Z,9.443593
2023-04-30T10:36:22.954Z,9.443680
2023-04-30T10:37:21.971Z,9.443675
2023-04-30T10:38:21.989Z,9.443670
2023-04-30T10:39:21.992Z,9.443668
2023-04-30T10:40:21.942Z,9.443673
2023-04-30T10:41:21.933Z,9.443688
2023-04-30T10:42:21.932Z,9.443668
2023-04-30T10:43:21.917Z,9.443508
2023-04-30T10:44:21.961Z,9.443625
2023-04-30T10:45:21.937Z,9.443590
2023-04-30T10:46:21.934Z,9.443608
2023-04-30T10:47:21.904Z,9.443660
2023-04-30T10:48:21.898Z,9.443676
2023-04-30T10:49:22.035Z,9.443679
2023-04-30T10:50:21.889Z,9.443676
2023-04-30T10:51:21.903Z,9.443675
2023-04-30T10:52:21.874Z,9.443731
2023-04-30T10:53:21.883Z,9.443711
2023-04-30T10:54:22.000Z,9.443632
2023-04-30T10:55:21.870Z,9.443667
2023-04-30T10:56:21.859Z,9.443684
2023-04-30T10:57:21.852Z,9.443632
2023-04-30T10:58:21.849Z,9.443752
2023-04-30T10:59:21.840Z,9.443726
2023-04-30T11:00:21.815Z,9.443726
2023-04-30T11:01:21.904Z,9.443785
2023-04-30T11:02:21.934Z,9.443637
2023-04-30T11:03:21.818Z,9.443771
2023-04-30T11:04:21.812Z,9.443783
2023-04-30T11:05:54.331Z,9.443790
2023-04-30T11:06:56.162Z,9.443698
2023-04-30T11:07:54.184Z,9.443767
2023-04-30T11:08:54.219Z,9.443726
2023-04-30T11:09:54.447Z,9.443781
2023-04-30T11:10:55.194Z,9.443767
2023-04-30T11:11:21.762Z,9.443851
2023-04-30T11:12:54.184Z,9.443813
2023-04-30T11:13:54.188Z,9.443781
2023-04-30T11:14:54.198Z,9.443822
2023-04-30T11:15:21.785Z,9.443857
2023-04-30T11:16:21.794Z,9.443738
2023-04-30T11:17:21.766Z,9.443692
2023-04-30T11:18:21.720Z,9.443747
2023-04-30T11:19:21.748Z,9.443792
2023-04-30T11:20:21.733Z,9.443787
2023-04-30T11:21:21.693Z,9.443759
2023-04-30T11:22:21.707Z,9.443786
2023-04-30T11:23:31.819Z,9.443728
2023-04-30T11:24:23.691Z,9.443668
2023-04-30T11:25:21.689Z,9.443670
2023-04-30T11:26:21.680Z,9.443665
2023-04-30T11:27:21.661Z,9.443752
2023-04-30T11:28:22.677Z,9.443878
2023-04-30T11:29:21.700Z,9.443618
2023-04-30T11:30:21.725Z,9.443513
2023-04-30T11:31:21.711Z,9.443579
2023-04-30T11:32:21.744Z,9.443560
2023-04-30T11:33:21.636Z,9.443667
2023-04-30T11:34:21.726Z,9.443703
2023-04-30T11:35:21.641Z,9.443610
2023-04-30T11:36:21.636Z,9.443646
2023-04-30T11:37:21.634Z,9.443626
2023-04-30T11:38:21.641Z,9.443666
2023-04-30T11:39:21.612Z,9.443695
2023-04-30T11:40:21.652Z,9.443711
2023-04-30T11:41:21.620Z,9.443646
2023-04-30T11:42:21.643Z,9.443609
2023-04-30T11:43:21.602Z,9.443665
2023-04-30T11:44:21.637Z,9.443690